Nearby METAR Reports

(scroll for additional cities)

KPSP - Palm Springs, California, USA
Distance from station: WNW 7mi, 11km
Updated: Tue, 19-Sep-2017 10:53am PDT
Clear
Clear
 Wind from NNW
Wind: NNW 12 mph , 19 km/h, Gust: 18 mph , 30 km/h
Temperature: 86°F , 30°C
Dew Point: 52°F , 11°C
Humidity: 31%
Barometer: 29.82 inHg , 1009.8 hPa
Clouds: Clear
Visibility: 10 miles , 16 km
2017/09/19 17:53 KPSP 191753Z 33010G16KT 10SM CLR 30/11 A2982 RMK AO2 SLP092 T03000111 10300 20206 58000
KTRM - Thermal/Palm Spg, California, USA
Distance from station: SE 16mi, 26km
Updated: Tue, 19-Sep-2017 10:52am PDT
Clear
Clear
 Wind from varies
Wind: varies 5 mph , 7 km/h
Temperature: 88°F , 31°C
Dew Point: 52°F , 11°C
Humidity: 29%
Barometer: 29.77 inHg , 1008.1 hPa
Clouds: Clear
Visibility: 10 miles , 16 km
2017/09/19 17:52 KTRM 191752Z AUTO VRB04KT 10SM CLR 31/11 A2977 RMK AO2 SLP082 T03060106 10306 20228 58000
 
KNXP - Twentynine Palms, California, USA
Distance from station: NNE 37mi, 60km
Updated: Tue, 19-Sep-2017 10:56am PDT
Clear
Clear
 Wind from NNW
Wind: NNW 3 mph , 6 km/h
Temperature: 81°F , 27°C
Dew Point: 41°F , 5°C
Humidity: 24%
Barometer: 29.93 inHg , 1013.5 hPa
Clouds: Clear
Visibility: 10 miles , 16 km
2017/09/19 17:56 KNXP 191756Z AUTO 33003KT 10SM CLR 27/05 A2993 RMK AO2 SLP100 T02670050 10267 20189 58004 $
KL35 - Big Bear City, California, USA
Distance from station: NW 43mi, 69km
Updated: Tue, 19-Sep-2017 11:15am PDT
Clear
Clear
 Wind from SW
Wind: SW 7 mph , 11 km/h
Temperature: 70°F , 21°C
Dew Point: 23°F , -5°C
Humidity: 17%
Barometer: 30.10 inHg , 1019.3 hPa
Clouds: Clear
Visibility: 10 miles , 16 km
2017/09/19 18:15 KL35 191815Z AUTO 23006KT 10SM CLR 21/M05 A3010 RMK AO2
 
KF70 - Murrieta/Temecula, California, USA
Distance from station: WSW 45mi, 73km
Updated: Tue, 19-Sep-2017 11:15am PDT
Overcast
Overcast
 Wind from calm
Wind: Calm
Temperature: 64°F , 18°C
Dew Point: 55°F , 13°C
Humidity: 73%
Barometer: 29.98 inHg , 1015.2 hPa
Clouds: Overcast
Visibility: 10 miles , 16 km
Cloud details: Overcast 1900 ft
2017/09/19 18:15 KF70 191815Z AUTO 00000KT 10SM OVC019 18/13 A2998 RMK AO1
KRIV - Riverside/March, California, USA
Distance from station: W 51mi, 82km
Updated: Tue, 19-Sep-2017 11:28am PDT
Overcast
Overcast
 Wind from SE
Wind: SE 5 mph , 7 km/h
Temperature: 70°F , 21°C
Dew Point: 55°F , 13°C
Humidity: 60%
Barometer: 29.96 inHg , 1014.6 hPa
Clouds: Overcast
Visibility: 10 miles , 16 km
Cloud details: Overcast 3000 ft
2017/09/19 18:28 KRIV 191828Z AUTO 14004KT 10SM OVC030 21/13 A2996 RMK AO2 SLP137
 
KSBD - San Bernardino, California, USA
Distance from station: WNW 54mi, 86km
Updated: Tue, 19-Sep-2017 10:50am PDT
Haze, Overcast
Haze, Overcast
 Wind from calm
Wind: Calm
Temperature: 72°F , 22°C
Dew Point: 57°F , 14°C
Humidity: 61%
Barometer: 29.96 inHg , 1014.6 hPa
Summary: Haze
Clouds: Overcast
Visibility: 03 miles , 5 km
Cloud details: Overcast 3200 ft
2017/09/19 17:50 KSBD 191750Z 00000KT 03SM HZ OVC032 22/14 A2996
KRNM - Ramona, California, USA
Distance from station: SSW 60mi, 96km
Updated: Tue, 19-Sep-2017 10:53am PDT
Few Clouds
Few Clouds
 Wind from NW
Wind: NW 8 mph , 13 km/h
Temperature: 72°F , 22°C
Dew Point: 55°F , 13°C
Humidity: 57%
Barometer: 29.97 inHg , 1014.9 hPa
Clouds: Few Clouds
Visibility: 10 miles , 16 km
Cloud details: Few Clouds 2500 ft
2017/09/19 17:53 KRNM 191753Z 31007KT 10SM FEW025 22/13 A2997 RMK AO2 SLP137 T02220133 10222 20167 50001
 
KRAL - Riverside, California, USA
Distance from station: W 62mi, 100km
Updated: Tue, 19-Sep-2017 10:53am PDT
Overcast
Overcast
 Wind from calm
Wind: Calm
Temperature: 72°F , 22°C
Dew Point: 57°F , 14°C
Humidity: 61%
Barometer: 29.95 inHg , 1014.2 hPa
Clouds: Overcast
Visibility: 10 miles , 16 km
Cloud details: Overcast 3600 ft
2017/09/19 17:53 KRAL 191753Z 00000KT 10SM OVC036 22/14 A2995 RMK AO2 SLP129 T02170139 10217 20183 50004
KOKB - Oceanside, California, USA
Distance from station: SW 68mi, 109km
Updated: Tue, 19-Sep-2017 10:52am PDT
Overcast
Overcast
 Wind from SSW
Wind: SSW 6 mph , 9 km/h
Temperature: 73°F , 23°C
Dew Point: 59°F , 15°C
Humidity: 61%
Barometer: 29.94 inHg , 1013.9 hPa
Clouds: Overcast
Visibility: 10 miles , 16 km
Cloud details: Overcast 3400 ft
2017/09/19 17:52 KOKB 191752Z AUTO 20005KT 10SM OVC034 23/15 A2994 RMK AO2 SLP137 T02330150 10233 20189 50003
 
KONT - Ontario, California, USA
Distance from station: WNW 71mi, 114km
Updated: Tue, 19-Sep-2017 10:53am PDT
Mostly Cloudy
Mostly Cloudy
 Wind from WSW
Wind: WSW 8 mph , 13 km/h
Temperature: 72°F , 22°C
Dew Point: 55°F , 13°C
Humidity: 57%
Barometer: 29.95 inHg , 1014.2 hPa
Clouds: Mostly Cloudy
Visibility: 7 miles , 11 km
Cloud details: Partly Cloudy 2900 ft
Mostly Cloudy 3800 ft
2017/09/19 17:53 KONT 191753Z 24007KT 7SM SCT029 BKN038 22/13 A2995 RMK AO2 SLP133 T02170128 10222 20183 50004 $
KNJK - El Centro Naf, California, USA
Distance from station: SSE 78mi, 126km
Updated: Tue, 19-Sep-2017 10:56am PDT
Clear
Clear
 Wind from S
Wind: S 9 mph , 15 km/h
Temperature: 91°F , 33°C
Dew Point: 34°F , 1°C
Humidity: 13%
Barometer: 29.80 inHg , 1009.1 hPa
Clouds: Clear
Visibility: 10 miles , 16 km
2017/09/19 17:56 KNJK 191756Z 19008KT 10SM CLR 33/01 A2980 RMK AO2 SLP105 T03280011 10328 20206 58001
 
KSEE - San Diego/Santee, California, USA
Distance from station: SSW 74mi, 120km
Updated: Tue, 19-Sep-2017 10:47am PDT
Few Clouds
Few Clouds
 Wind from varies
Wind: varies 6 mph , 9 km/h
Temperature: 72°F , 22°C
Dew Point: 55°F , 13°C
Humidity: 57%
Barometer: 29.96 inHg , 1014.6 hPa
Clouds: Few Clouds
Visibility: 10 miles , 16 km
Cloud details: Few Clouds 3000 ft
2017/09/19 17:47 KSEE 191747Z VRB05KT 10SM FEW030 22/13 A2996
KCNO - Chino, California, USA
Distance from station: W 72mi, 116km
Updated: Tue, 19-Sep-2017 10:53am PDT
Overcast
Overcast
 Wind from SW
Wind: SW 8 mph , 13 km/h
Temperature: 75°F , 24°C
Dew Point: 55°F , 13°C
Humidity: 50%
Barometer: 29.96 inHg , 1014.6 hPa
Clouds: Overcast
Visibility: 10 miles , 16 km
Cloud details: Overcast 4000 ft
2017/09/19 17:53 KCNO 191753Z 23007KT 10SM OVC040 24/13 A2996 RMK AO2 SLP141 T02390128 10250 20194 50003